Time;durP1;ratioP1;P1;durP2;ratioP2;P2;SDS_P1;SDS_P2;PMS_P1;PMS_P2;Temp;Humidity;BMP_temperature;BMP_pressure;BME280_temperature;BME280_humidity;BME280_pressure;Samples;Min_cycle;Max_cycle;Signal;HPM_P1;HPM_P2
2022/10/12 00:00:53;;;;;;;9.50;7.47;;;17.90;76.10;18.30;97074.00;;;;5045808;28;20245;-81
2022/10/12 00:03:20;;;;;;;9.30;6.87;;;17.90;76.20;18.30;97072.00;;;;5052850;28;20286;-81
2022/10/12 00:05:50;;;;;;;7.70;6.97;;;17.90;76.20;18.30;97069.00;;;;5050661;28;20218;-81
2022/10/12 00:08:17;;;;;;;8.27;6.80;;;17.90;76.20;18.30;97074.00;;;;5026325;28;20261;-82
2022/10/12 00:10:45;;;;;;;9.17;7.77;;;17.90;76.10;18.30;97074.00;;;;5043558;28;20203;-81
2022/10/12 00:13:12;;;;;;;9.60;7.30;;;17.90;76.10;18.30;97071.00;;;;5043907;28;20632;-81
2022/10/12 00:15:41;;;;;;;7.77;6.97;;;17.90;76.10;18.30;97071.00;;;;5040943;28;20208;-82
2022/10/12 00:18:08;;;;;;;9.40;7.63;;;17.90;76.10;18.20;97073.00;;;;5031268;28;20256;-81
2022/10/12 00:20:35;;;;;;;8.33;7.53;;;17.90;76.10;18.20;97069.00;;;;5045771;28;20228;-81
2022/10/12 00:23:03;;;;;;;8.10;7.30;;;17.90;75.90;18.20;97066.00;;;;5041038;28;20228;-81
2022/10/12 00:25:30;;;;;;;10.60;8.17;;;17.90;75.80;18.20;97074.00;;;;5045340;28;20249;-82
2022/10/12 00:27:57;;;;;;;10.00;7.27;;;17.90;76.50;18.20;97073.00;;;;5031240;28;20651;-81
2022/10/12 00:30:24;;;;;;;7.93;7.00;;;17.90;75.70;18.20;97070.00;;;;5046291;28;20203;-82
2022/10/12 00:32:52;;;;;;;11.90;7.60;;;17.80;75.80;18.10;97068.00;;;;5037952;28;20249;-81
2022/10/12 00:35:20;;;;;;;8.10;6.60;;;17.80;76.40;18.10;97069.00;;;;5035750;28;20220;-81
2022/10/12 00:37:47;;;;;;;7.97;7.17;;;17.80;75.60;18.10;97065.00;;;;5037265;28;20216;-81
2022/10/12 00:40:14;;;;;;;8.47;7.63;;;17.80;76.40;18.10;97065.00;;;;5045615;28;20235;-81
2022/10/12 00:42:41;;;;;;;8.03;7.27;;;17.70;75.60;18.00;97065.00;;;;5029640;28;20222;-81
2022/10/12 00:45:10;;;;;;;8.33;7.30;;;17.70;75.70;18.00;97063.00;;;;5049482;28;20205;-81
2022/10/12 00:47:41;;;;;;;7.97;7.17;;;17.70;75.60;18.00;97060.00;;;;5036696;28;20208;-81
2022/10/12 00:50:19;;;;;;;8.57;7.27;;;17.70;75.60;18.00;97064.00;;;;5033448;28;20194;-81
2022/10/12 00:52:54;;;;;;;8.47;7.47;;;17.70;75.60;17.90;97058.00;;;;5047356;28;20248;-81
2022/10/12 00:55:25;;;;;;;8.07;6.97;;;17.70;75.70;17.90;97059.00;;;;5040968;28;20233;-81
2022/10/12 00:57:55;;;;;;;9.77;7.00;;;17.60;75.60;17.90;97053.00;;;;5044064;28;20556;-81
2022/10/12 01:00:23;;;;;;;7.70;6.83;;;17.60;75.60;17.80;97057.00;;;;5029325;28;20220;-81
2022/10/12 01:02:54;;;;;;;8.13;7.33;;;17.60;75.60;17.80;97058.00;;;;5029476;28;20214;-81
2022/10/12 01:05:24;;;;;;;8.53;7.67;;;17.50;75.60;17.80;97051.00;;;;5035181;28;20726;-81
2022/10/12 01:07:51;;;;;;;8.60;7.77;;;17.50;75.70;17.80;97056.00;;;;5032958;28;20188;-82
2022/10/12 01:10:19;;;;;;;9.00;7.47;;;17.50;75.70;17.80;97050.00;;;;5046690;28;20200;-82
2022/10/12 01:12:49;;;;;;;7.43;6.70;;;17.50;75.70;17.70;97051.00;;;;5028443;28;20304;-81
2022/10/12 01:15:17;;;;;;;10.63;7.47;;;17.50;75.80;17.70;97053.00;;;;5049308;28;20202;-81
2022/10/12 01:20:39;;;;;;;8.60;7.77;;;17.50;75.90;17.70;97049.00;;;;5111058;22;20234;-84
2022/10/12 01:23:59;;;;;;;7.57;6.70;;;17.40;76.00;17.60;97057.00;;;;5100017;28;20277;-84
2022/10/12 01:27:08;;;;;;;7.83;6.90;;;17.40;76.10;17.60;97052.00;;;;5087906;28;20222;-86
2022/10/12 01:30:13;;;;;;;8.43;7.53;;;17.40;76.10;17.60;97059.00;;;;5058145;28;20284;-86
2022/10/12 01:33:05;;;;;;;8.47;7.60;;;17.40;76.10;17.60;97057.00;;;;5087234;22;20243;-85
2022/10/12 01:35:44;;;;;;;8.43;7.17;;;17.40;76.10;17.50;97054.00;;;;5054921;28;20219;-85
2022/10/12 01:38:34;;;;;;;8.57;7.67;;;17.30;76.10;17.50;97056.00;;;;5050469;28;20207;-85
2022/10/12 01:41:10;;;;;;;11.53;8.33;;;17.30;76.20;17.50;97045.00;;;;5040126;28;20216;-87
2022/10/12 01:43:42;;;;;;;8.67;7.53;;;17.30;77.00;17.50;97045.00;;;;5024727;28;20225;-88
2022/10/12 01:46:44;;;;;;;9.40;8.13;;;17.20;76.20;17.40;97051.00;;;;5029094;28;20225;-87
2022/10/12 01:49:19;;;;;;;10.90;7.67;;;17.20;76.40;17.40;97049.00;;;;5025321;28;20201;-86
2022/10/12 01:52:17;;;;;;;8.87;7.17;;;17.20;76.30;17.40;97050.00;;;;5020649;28;20217;-87
2022/10/12 01:55:12;;;;;;;7.70;7.00;;;17.20;76.50;17.40;97044.00;;;;5013370;28;20222;-86
2022/10/12 01:58:06;;;;;;;10.40;7.60;;;17.20;76.50;17.40;97052.00;;;;5030639;28;20210;-86
2022/10/12 02:00:42;;;;;;;8.27;7.40;;;17.20;76.50;17.40;97052.00;;;;5029076;28;20650;-86
2022/10/12 02:03:21;;;;;;;8.23;7.43;;;17.20;76.60;17.40;97056.00;;;;5030708;28;20591;-86
2022/10/12 02:05:59;;;;;;;10.77;8.07;;;17.20;76.70;17.40;97039.00;;;;5026118;28;20209;-86
2022/10/12 02:08:33;;;;;;;8.83;7.57;;;17.20;76.80;17.40;97057.00;;;;5033408;28;20193;-86
2022/10/12 02:11:07;;;;;;;9.93;7.93;;;17.10;76.70;17.40;97052.00;;;;5033052;28;20280;-87
2022/10/12 02:13:41;;;;;;;8.40;7.43;;;17.10;76.70;17.40;97051.00;;;;5027134;28;20248;-85
2022/10/12 02:16:14;;;;;;;9.30;7.80;;;17.10;76.80;17.40;97055.00;;;;5037429;28;20651;-87
2022/10/12 02:18:51;;;;;;;10.90;7.73;;;17.20;77.00;17.40;97055.00;;;;5035207;28;20220;-86
2022/10/12 02:21:25;;;;;;;8.57;7.57;;;17.20;77.10;17.50;97051.00;;;;5037621;28;20197;-86
2022/10/12 02:23:56;;;;;;;8.67;7.53;;;17.20;77.20;17.50;97056.00;;;;5031488;28;20232;-86
2022/10/12 02:26:24;;;;;;;10.67;8.47;;;17.20;77.20;17.50;97052.00;;;;5032706;28;20237;-86
2022/10/12 02:28:52;;;;;;;8.37;7.57;;;17.20;77.10;17.50;97045.00;;;;5031412;28;20654;-86
2022/10/12 02:31:36;;;;;;;9.13;7.83;;;17.20;77.10;17.50;97042.00;;;;5035215;28;20746;-86
2022/10/12 02:34:14;;;;;;;9.83;8.10;;;17.20;77.20;17.50;97053.00;;;;5025794;28;20240;-86
2022/10/12 02:36:50;;;;;;;9.53;8.37;;;17.20;77.30;17.60;97046.00;;;;5034789;28;20380;-86
2022/10/12 02:39:25;;;;;;;10.93;7.70;;;17.20;77.30;17.60;97043.00;;;;5034805;28;20241;-87
2022/10/12 02:42:01;;;;;;;8.73;7.83;;;17.30;77.30;17.60;97042.00;;;;5032571;28;20292;-86
2022/10/12 02:44:37;;;;;;;9.77;8.30;;;17.30;77.30;17.60;97039.00;;;;5029758;28;20189;-86
2022/10/12 02:47:07;;;;;;;12.87;8.50;;;17.30;77.30;17.60;97042.00;;;;5030605;28;20220;-85
2022/10/12 02:49:39;;;;;;;8.17;7.37;;;17.30;77.30;17.60;97034.00;;;;5037097;28;20216;-85
2022/10/12 02:52:08;;;;;;;9.10;8.30;;;17.30;77.40;17.70;97030.00;;;;5036958;28;20304;-86
2022/10/12 02:54:36;;;;;;;10.13;8.10;;;17.30;77.30;17.70;97041.00;;;;5035753;28;20288;-85
2022/10/12 02:57:03;;;;;;;10.83;8.30;;;17.30;77.40;17.70;97035.00;;;;5036783;28;20224;-85
2022/10/12 02:59:31;;;;;;;10.57;7.53;;;17.40;77.40;17.70;97033.00;;;;5029211;28;20193;-86
2022/10/12 03:01:58;;;;;;;13.33;8.77;;;17.40;77.40;17.70;97041.00;;;;5035250;28;20245;-87
2022/10/12 03:04:25;;;;;;;13.83;8.47;;;17.40;77.30;17.70;97042.00;;;;5032551;28;20287;-87
2022/10/12 03:06:53;;;;;;;10.77;8.77;;;17.40;77.30;17.70;97037.00;;;;5022577;28;20252;-86
2022/10/12 03:09:21;;;;;;;12.43;8.83;;;17.40;77.40;17.70;97030.00;;;;5029582;28;20224;-86
2022/10/12 03:11:48;;;;;;;9.97;8.40;;;17.40;77.40;17.70;97023.00;;;;5029003;28;20217;-86
2022/10/12 03:14:16;;;;;;;10.10;8.27;;;17.40;77.30;17.70;97040.00;;;;5026764;28;20229;-86
2022/10/12 03:16:45;;;;;;;10.37;8.57;;;17.40;77.40;17.70;97036.00;;;;5021079;28;20561;-86
2022/10/12 03:19:12;;;;;;;9.40;8.40;;;17.40;77.40;17.80;97038.00;;;;5022613;28;20216;-86
2022/10/12 03:21:40;;;;;;;9.63;8.40;;;17.40;77.30;17.80;97041.00;;;;5029006;28;20228;-86
2022/10/12 03:24:09;;;;;;;11.67;8.93;;;17.40;77.30;17.70;97036.00;;;;5035609;28;20194;-86
2022/10/12 03:26:36;;;;;;;9.23;8.33;;;17.40;77.20;17.70;97037.00;;;;5033964;28;20312;-85
2022/10/12 03:29:04;;;;;;;12.10;9.30;;;17.40;77.20;17.70;97042.00;;;;5019411;28;20237;-86
2022/10/12 03:31:31;;;;;;;9.43;8.30;;;17.40;77.10;17.70;97045.00;;;;5023842;28;20246;-87
2022/10/12 03:33:58;;;;;;;9.67;8.03;;;17.40;77.10;17.70;97038.00;;;;5033910;28;20252;-86
2022/10/12 03:36:25;;;;;;;11.20;8.37;;;17.40;77.10;17.70;97041.00;;;;5033052;28;20221;-86
2022/10/12 03:38:52;;;;;;;11.20;8.13;;;17.40;77.10;17.70;97041.00;;;;5020434;28;20221;-86
2022/10/12 03:41:21;;;;;;;9.23;7.60;;;17.40;77.10;17.70;97040.00;;;;5028015;28;20225;-86
2022/10/12 03:43:48;;;;;;;9.23;8.33;;;17.40;77.20;17.70;97041.00;;;;5030385;28;20276;-86
2022/10/12 03:46:21;;;;;;;8.87;7.87;;;17.40;77.20;17.70;97035.00;;;;5031196;28;20715;-86
2022/10/12 03:48:53;;;;;;;10.70;8.30;;;17.40;77.30;17.70;97039.00;;;;5026157;28;20232;-86
2022/10/12 03:51:20;;;;;;;15.83;8.70;;;17.40;77.30;17.70;97037.00;;;;5025148;28;20224;-86
2022/10/12 03:53:47;;;;;;;9.73;8.37;;;17.40;78.00;17.70;97041.00;;;;5018381;28;20225;-87
2022/10/12 03:56:14;;;;;;;8.93;7.93;;;17.40;77.30;17.70;97035.00;;;;5031918;28;20212;-86
2022/10/12 03:58:43;;;;;;;9.27;8.13;;;17.40;77.20;17.80;97042.00;;;;5034443;28;20205;-86
2022/10/12 04:01:10;;;;;;;10.03;8.73;;;17.40;77.30;17.70;97042.00;;;;5032298;28;20662;-86
2022/10/12 04:03:40;;;;;;;10.03;8.17;;;17.40;77.30;17.70;97042.00;;;;5032509;28;20613;-85
2022/10/12 04:06:07;;;;;;;11.27;7.97;;;17.40;77.30;17.70;97047.00;;;;5025156;28;20198;-85
2022/10/12 04:08:34;;;;;;;8.90;8.00;;;17.40;77.30;17.80;97039.00;;;;5034577;28;20209;-86
2022/10/12 04:11:01;;;;;;;10.20;8.80;;;17.40;77.40;17.80;97042.00;;;;5036512;28;20263;-86
2022/10/12 04:13:31;;;;;;;10.53;8.47;;;17.40;77.40;17.80;97039.00;;;;5029604;28;20249;-86
2022/10/12 04:16:05;;;;;;;13.00;8.67;;;17.40;77.40;17.80;97050.00;;;;5026402;28;20198;-86
2022/10/12 04:18:33;;;;;;;11.20;8.20;;;17.40;77.30;17.80;97050.00;;;;5051752;28;20204;-87
2022/10/12 04:21:01;;;;;;;10.50;8.30;;;17.50;77.50;17.80;97049.00;;;;5032634;28;20615;-88
2022/10/12 04:23:28;;;;;;;14.67;9.27;;;17.40;77.40;17.80;97044.00;;;;5031797;28;20938;-85
2022/10/12 04:25:55;;;;;;;11.70;8.63;;;17.50;77.60;17.80;97042.00;;;;5034739;28;20263;-86
2022/10/12 04:28:22;;;;;;;9.97;8.57;;;17.50;77.60;17.80;97039.00;;;;5032472;28;20248;-86
2022/10/12 04:30:50;;;;;;;9.73;8.63;;;17.50;77.50;17.80;97031.00;;;;5035774;28;20670;-85
2022/10/12 04:33:18;;;;;;;9.73;8.70;;;17.50;77.50;17.80;97034.00;;;;5030221;28;20276;-86
2022/10/12 04:35:45;;;;;;;11.93;9.00;;;17.50;77.60;17.80;97037.00;;;;5027165;28;20232;-86
2022/10/12 04:38:12;;;;;;;11.47;8.30;;;17.50;77.60;17.80;97039.00;;;;5034402;28;20837;-85
2022/10/12 04:40:40;;;;;;;11.30;8.20;;;17.50;77.50;17.90;97041.00;;;;5035205;28;20204;-86
2022/10/12 04:43:07;;;;;;;12.10;8.77;;;17.50;77.50;17.90;97038.00;;;;5033667;28;20560;-86
2022/10/12 04:45:38;;;;;;;10.13;8.47;;;17.50;77.50;17.90;97044.00;;;;5031387;28;20265;-86
2022/10/12 04:48:05;;;;;;;9.93;7.63;;;17.50;77.40;17.80;97042.00;;;;5032940;28;20225;-86
2022/10/12 04:50:34;;;;;;;12.27;8.50;;;17.50;77.40;17.80;97043.00;;;;5032111;28;20307;-85
2022/10/12 04:53:01;;;;;;;10.90;7.90;;;17.50;77.40;17.80;97045.00;;;;5023710;28;20268;-86
2022/10/12 04:55:29;;;;;;;9.90;8.60;;;17.50;77.30;17.80;97043.00;;;;5028200;28;20193;-85
2022/10/12 04:57:56;;;;;;;10.23;8.67;;;17.50;77.50;17.80;97040.00;;;;5030467;28;20222;-85
2022/10/12 05:00:23;;;;;;;9.50;8.13;;;17.50;77.60;17.90;97038.00;;;;5026254;28;20202;-86
2022/10/12 05:02:50;;;;;;;11.37;8.50;;;17.50;77.60;17.90;97048.00;;;;5026554;28;20742;-85
2022/10/12 05:05:20;;;;;;;12.63;9.37;;;17.50;77.60;17.90;97042.00;;;;5032838;28;20221;-85
2022/10/12 05:07:49;;;;;;;12.53;8.50;;;17.60;77.60;17.90;97047.00;;;;5031667;28;20259;-85
2022/10/12 05:10:16;;;;;;;9.93;8.20;;;17.50;77.50;17.90;97044.00;;;;5023829;28;20198;-81
2022/10/12 05:12:44;;;;;;;12.70;8.80;;;17.50;77.50;17.90;97048.00;;;;5035212;28;20221;-82
2022/10/12 05:15:11;;;;;;;13.00;8.30;;;17.60;77.60;17.90;97053.00;;;;5033301;28;20213;-81
2022/10/12 05:17:38;;;;;;;11.57;9.03;;;17.60;77.60;18.00;97061.00;;;;5042509;28;20535;-82
2022/10/12 05:20:08;;;;;;;11.43;8.77;;;17.60;77.60;18.00;97061.00;;;;5038330;28;20201;-82
2022/10/12 05:22:35;;;;;;;12.50;8.40;;;17.60;77.60;18.00;97059.00;;;;5030525;28;20230;-81
2022/10/12 05:25:05;;;;;;;10.93;8.63;;;17.60;77.50;18.10;97064.00;;;;5023616;28;20668;-81
2022/10/12 05:27:32;;;;;;;14.97;8.97;;;17.60;77.50;18.10;97058.00;;;;5032199;28;20221;-81
2022/10/12 05:29:59;;;;;;;12.53;9.40;;;17.60;77.50;18.10;97066.00;;;;5038753;28;20200;-81
2022/10/12 05:32:26;;;;;;;12.97;9.30;;;17.60;77.50;18.10;97068.00;;;;5033340;28;20213;-81
2022/10/12 05:34:54;;;;;;;10.70;9.03;;;17.60;77.40;18.10;97058.00;;;;5039106;28;20205;-84
2022/10/12 05:37:21;;;;;;;10.77;8.83;;;17.60;77.40;18.10;97057.00;;;;5028730;28;20236;-84
2022/10/12 05:39:50;;;;;;;12.77;9.00;;;17.60;77.40;18.10;97067.00;;;;5034100;28;20256;-85
2022/10/12 05:42:19;;;;;;;11.60;8.60;;;17.60;77.50;18.10;97072.00;;;;5033304;28;20239;-84
2022/10/12 05:44:46;;;;;;;10.47;8.40;;;17.60;77.60;18.10;97069.00;;;;5026575;28;20252;-84
2022/10/12 05:47:13;;;;;;;11.73;8.73;;;17.70;77.60;18.10;97066.00;;;;5032390;28;20249;-84
2022/10/12 05:49:40;;;;;;;12.10;8.97;;;17.70;77.60;18.10;97065.00;;;;5036053;28;20224;-84
2022/10/12 05:52:08;;;;;;;14.10;8.63;;;17.70;77.60;18.10;97066.00;;;;5038610;28;20228;-82
2022/10/12 05:54:35;;;;;;;12.47;8.93;;;17.70;77.60;18.10;97079.00;;;;5040786;28;20194;-83
2022/10/12 05:57:02;;;;;;;14.63;9.67;;;17.70;77.60;18.10;97076.00;;;;5041327;28;20205;-84
2022/10/12 05:59:31;;;;;;;15.23;9.63;;;17.70;77.60;18.10;97075.00;;;;5037642;28;20205;-84
2022/10/12 06:01:58;;;;;;;13.53;9.67;;;17.70;77.60;18.10;97079.00;;;;5033421;28;20636;-83
2022/10/12 06:04:25;;;;;;;15.40;8.80;;;17.70;77.60;18.10;97083.00;;;;5031059;28;20205;-81
2022/10/12 06:06:53;;;;;;;15.53;10.00;;;17.70;77.60;18.20;97090.00;;;;5030800;28;20197;-83
2022/10/12 06:09:20;;;;;;;15.27;9.10;;;17.70;77.60;18.10;97088.00;;;;5032965;28;20190;-83
2022/10/12 06:11:47;;;;;;;14.87;9.17;;;17.70;77.60;18.20;97096.00;;;;5033339;28;20217;-81
2022/10/12 06:14:15;;;;;;;13.13;8.70;;;17.70;77.60;18.20;97100.00;;;;5041757;28;20197;-82
2022/10/12 06:16:43;;;;;;;13.77;9.27;;;17.70;77.60;18.20;97098.00;;;;5034962;28;20197;-81
2022/10/12 06:19:11;;;;;;;18.93;9.57;;;17.70;77.60;18.20;97091.00;;;;5038505;28;20690;-81
2022/10/12 06:21:43;;;;;;;12.20;9.53;;;17.70;77.60;18.20;97085.00;;;;5037111;28;20222;-81
2022/10/12 06:24:13;;;;;;;13.63;9.03;;;17.70;77.60;18.20;97087.00;;;;5037313;28;20182;-81
2022/10/12 06:26:44;;;;;;;12.13;8.90;;;17.70;77.70;18.20;97081.00;;;;5037969;28;20201;-81
2022/10/12 06:29:13;;;;;;;13.43;8.53;;;17.70;77.70;18.20;97083.00;;;;5036137;28;20235;-81
2022/10/12 06:31:49;;;;;;;16.00;9.47;;;17.70;77.90;18.20;97087.00;;;;5037039;28;20710;-81
2022/10/12 06:34:24;;;;;;;14.07;9.57;;;17.70;77.80;18.20;97098.00;;;;5038101;28;20205;-82
2022/10/12 06:36:54;;;;;;;14.47;9.70;;;17.70;77.90;18.20;97098.00;;;;5035239;28;20235;-81
2022/10/12 06:39:25;;;;;;;20.17;11.00;;;17.70;77.90;18.20;97103.00;;;;5029185;28;20233;-82
2022/10/12 06:41:53;;;;;;;19.90;10.30;;;17.80;78.00;18.20;97096.00;;;;5022621;28;20209;-82
2022/10/12 06:44:21;;;;;;;20.37;10.63;;;17.80;78.00;18.20;97093.00;;;;5018661;28;20209;-82
2022/10/12 06:46:50;;;;;;;14.27;9.23;;;17.80;78.10;18.20;97094.00;;;;5021038;28;20194;-82
2022/10/12 06:49:18;;;;;;;17.37;10.47;;;17.80;78.20;18.20;97096.00;;;;5031125;28;20252;-81
2022/10/12 06:51:45;;;;;;;21.43;11.00;;;17.80;78.20;18.30;97095.00;;;;5031919;28;20253;-82
2022/10/12 06:54:12;;;;;;;17.70;10.57;;;17.80;78.20;18.30;97106.00;;;;5034071;28;20209;-82
2022/10/12 06:56:39;;;;;;;19.17;11.47;;;17.80;78.30;18.30;97101.00;;;;5024376;28;20222;-82
2022/10/12 06:59:07;;;;;;;20.77;11.20;;;17.80;78.40;18.30;97102.00;;;;5025532;28;20221;-82
2022/10/12 07:01:34;;;;;;;19.70;10.67;;;17.80;78.30;18.30;97105.00;;;;5039009;28;20217;-82
2022/10/12 07:04:02;;;;;;;19.37;11.10;;;17.80;78.20;18.30;97101.00;;;;5025560;28;20198;-82
2022/10/12 07:06:30;;;;;;;16.73;10.67;;;17.90;78.40;18.30;97108.00;;;;5035951;28;20696;-82
2022/10/12 07:08:57;;;;;;;18.83;10.70;;;17.90;78.40;18.30;97107.00;;;;5038926;28;20298;-82
2022/10/12 07:11:24;;;;;;;20.97;11.83;;;17.90;78.40;18.30;97107.00;;;;5030468;28;20210;-83
2022/10/12 07:13:51;;;;;;;21.83;11.07;;;17.90;78.50;18.30;97111.00;;;;5039004;28;20232;-82
2022/10/12 07:16:18;;;;;;;26.10;11.87;;;17.90;78.50;18.30;97105.00;;;;5038414;28;20666;-82
2022/10/12 07:18:45;;;;;;;19.83;10.67;;;17.90;78.50;18.30;97103.00;;;;5066643;23;20255;-85
2022/10/12 07:21:14;;;;;;;23.47;11.73;;;17.90;78.40;18.30;97108.00;;;;5065203;28;20275;-85
2022/10/12 07:23:41;;;;;;;18.33;11.00;;;17.90;78.40;18.30;97102.00;;;;5066466;28;20261;-82
2022/10/12 07:26:09;;;;;;;17.20;11.60;;;17.90;78.40;18.30;97100.00;;;;5068687;28;20662;-82
2022/10/12 07:28:37;;;;;;;15.80;10.97;;;17.90;78.40;18.30;97110.00;;;;5098783;22;20318;-84
2022/10/12 07:31:08;;;;;;;20.37;10.73;;;17.90;78.50;18.30;97111.00;;;;5094382;28;20195;-85
2022/10/12 07:33:37;;;;;;;17.67;10.77;;;17.90;78.50;18.40;97114.00;;;;5075517;28;20251;-82
2022/10/12 07:36:06;;;;;;;17.30;10.67;;;17.90;78.50;18.40;97112.00;;;;5070104;28;20200;-82
2022/10/12 07:38:35;;;;;;;21.57;10.27;;;17.90;78.50;18.40;97116.00;;;;5080264;28;20239;-82
2022/10/12 07:41:04;;;;;;;18.37;10.20;;;17.90;78.50;18.40;97113.00;;;;5067758;28;20234;-82
2022/10/12 07:43:32;;;;;;;14.27;9.97;;;17.90;78.50;18.40;97118.00;;;;5073908;28;20322;-83
2022/10/12 07:45:59;;;;;;;18.80;10.20;;;17.90;78.50;18.40;97112.00;;;;5072670;28;20190;-83
2022/10/12 07:48:26;;;;;;;19.93;10.67;;;17.90;78.50;18.40;97117.00;;;;5071944;28;20247;-83
2022/10/12 07:50:53;;;;;;;21.50;10.53;;;18.00;78.70;18.50;97119.00;;;;5071353;28;20287;-83
2022/10/12 07:53:21;;;;;;;18.53;9.80;;;18.00;78.70;18.50;97119.00;;;;5074855;28;20304;-83
2022/10/12 07:55:50;;;;;;;15.00;9.43;;;18.00;78.60;18.50;97120.00;;;;5073751;28;20216;-83
2022/10/12 07:58:17;;;;;;;16.97;10.13;;;18.00;78.70;18.50;97128.00;;;;5081114;28;20217;-83
2022/10/12 08:00:44;;;;;;;16.97;9.77;;;18.00;78.70;18.60;97129.00;;;;5074958;28;20223;-83
2022/10/12 08:03:11;;;;;;;18.67;10.30;;;18.10;78.70;18.60;97130.00;;;;5073618;28;20236;-83
2022/10/12 08:05:38;;;;;;;16.07;9.93;;;18.10;78.60;18.60;97133.00;;;;5064685;28;20940;-83
2022/10/12 08:08:07;;;;;;;17.20;10.00;;;18.10;78.50;18.60;97132.00;;;;5057153;28;20254;-83
2022/10/12 08:10:35;;;;;;;13.60;9.70;;;18.10;78.40;18.60;97137.00;;;;5059804;28;20196;-83
2022/10/12 08:13:04;;;;;;;17.17;9.53;;;18.10;78.30;18.70;97128.00;;;;5066877;28;20216;-83
2022/10/12 08:15:31;;;;;;;13.43;9.70;;;18.20;78.20;18.70;97129.00;;;;5055800;28;20639;-83
2022/10/12 08:17:58;;;;;;;18.57;10.23;;;18.20;78.20;18.70;97128.00;;;;5053449;28;20631;-82
2022/10/12 08:20:26;;;;;;;12.57;9.40;;;18.20;78.20;18.70;97129.00;;;;5052737;28;20228;-82
2022/10/12 08:22:53;;;;;;;14.73;9.60;;;18.20;78.20;18.70;97134.00;;;;5067838;28;20269;-82
2022/10/12 08:25:21;;;;;;;13.63;9.50;;;18.20;78.10;18.70;97134.00;;;;5072219;28;20216;-83
2022/10/12 08:27:48;;;;;;;13.60;9.93;;;18.30;78.80;18.80;97133.00;;;;5065610;28;20624;-82
2022/10/12 08:30:16;;;;;;;15.47;9.73;;;18.30;78.10;18.80;97129.00;;;;5069397;28;20290;-82
2022/10/12 08:32:44;;;;;;;14.93;9.10;;;18.30;78.00;18.80;97139.00;;;;5066225;28;20640;-83
2022/10/12 08:35:11;;;;;;;11.73;8.77;;;18.30;77.90;18.80;97132.00;;;;5071009;28;20231;-83
2022/10/12 08:37:38;;;;;;;11.83;9.20;;;18.30;77.70;18.80;97132.00;;;;5062464;28;20622;-83
2022/10/12 08:40:07;;;;;;;11.97;8.63;;;18.30;77.60;18.80;97135.00;;;;5055511;28;20192;-83
2022/10/12 08:42:51;;;;;;;13.57;8.97;;;18.30;77.60;18.80;97132.00;;;;5061415;28;20243;-83
2022/10/12 08:45:49;;;;;;;13.67;10.20;;;18.30;77.60;18.80;97133.00;;;;5070090;28;20274;-83
2022/10/12 08:48:23;;;;;;;15.73;10.13;;;18.30;77.50;18.80;97134.00;;;;5073222;28;20306;-83
2022/10/12 08:50:54;;;;;;;11.13;8.67;;;18.30;77.50;18.80;97140.00;;;;5072374;28;20706;-83
2022/10/12 08:53:26;;;;;;;12.00;8.70;;;18.30;77.50;18.80;97138.00;;;;5072647;28;20270;-83
2022/10/12 08:55:55;;;;;;;14.17;9.33;;;18.30;77.60;18.80;97128.00;;;;5072000;28;20251;-83
2022/10/12 08:58:28;;;;;;;13.33;9.53;;;18.30;77.60;18.80;97137.00;;;;5064115;28;20287;-83
2022/10/12 09:01:12;;;;;;;11.33;8.33;;;18.30;77.60;18.80;97142.00;;;;5051905;28;20249;-83
2022/10/12 09:03:50;;;;;;;13.43;9.37;;;18.30;77.60;18.80;97137.00;;;;5052293;28;20219;-83
2022/10/12 09:06:24;;;;;;;11.93;9.20;;;18.30;77.60;18.80;97146.00;;;;5051718;28;20665;-83
2022/10/12 09:09:05;;;;;;;11.53;9.00;;;18.30;77.70;18.80;97144.00;;;;5051813;28;20647;-83
2022/10/12 09:12:11;;;;;;;12.57;8.77;;;18.40;77.70;18.90;97144.00;;;;5066173;28;20656;-83
2022/10/12 09:14:42;;;;;;;12.10;9.17;;;18.40;77.60;18.90;97141.00;;;;5060039;28;20704;-83
2022/10/12 09:17:27;;;;;;;13.23;8.93;;;18.40;77.50;18.90;97137.00;;;;5065201;28;20592;-83
2022/10/12 09:20:07;;;;;;;12.67;9.37;;;18.40;77.40;18.90;97142.00;;;;5072877;28;20287;-82
2022/10/12 09:22:35;;;;;;;12.60;9.20;;;18.40;77.30;18.90;97144.00;;;;5060688;28;20327;-83
2022/10/12 09:25:03;;;;;;;15.20;10.07;;;18.40;77.40;18.90;97145.00;;;;5064968;28;20280;-83
2022/10/12 09:27:32;;;;;;;12.80;9.20;;;18.40;77.40;19.00;97137.00;;;;5071169;28;20224;-83
2022/10/12 09:30:05;;;;;;;12.67;8.97;;;18.50;77.40;19.00;97141.00;;;;5062487;28;20212;-82
2022/10/12 09:33:08;;;;;;;14.17;9.13;;;18.50;77.40;19.00;97144.00;;;;5064404;28;20301;-83
2022/10/12 09:35:37;;;;;;;13.00;9.53;;;18.50;77.30;19.00;97146.00;;;;5069176;28;20226;-82
2022/10/12 09:38:06;;;;;;;13.00;9.63;;;18.50;77.30;19.00;97149.00;;;;5067021;28;20667;-82
2022/10/12 09:40:33;;;;;;;12.17;8.90;;;18.50;77.10;19.00;97147.00;;;;5069713;28;20828;-83
2022/10/12 09:43:03;;;;;;;12.47;8.67;;;18.50;77.00;19.10;97152.00;;;;5059544;28;20238;-83
2022/10/12 09:45:33;;;;;;;10.17;8.23;;;18.50;77.10;19.10;97151.00;;;;5067141;28;20291;-82
2022/10/12 09:48:15;;;;;;;11.93;8.90;;;18.60;77.30;19.10;97163.00;;;;5066211;28;20220;-83
2022/10/12 09:50:49;;;;;;;10.63;8.50;;;18.60;77.30;19.10;97154.00;;;;5063029;28;20244;-83
2022/10/12 09:53:31;;;;;;;13.53;9.20;;;18.60;77.20;19.10;97151.00;;;;5072038;28;20266;-83
2022/10/12 09:56:05;;;;;;;10.57;8.27;;;18.60;77.10;19.20;97149.00;;;;5066161;28;20283;-83
2022/10/12 09:58:43;;;;;;;12.37;9.20;;;18.60;77.10;19.20;97155.00;;;;5071555;28;20287;-83
2022/10/12 10:01:22;;;;;;;11.07;8.30;;;18.70;76.80;19.20;97153.00;;;;5071251;28;20664;-83
2022/10/12 10:04:16;;;;;;;11.67;9.17;;;18.70;76.90;19.20;97150.00;;;;5070897;28;20234;-83
2022/10/12 10:06:46;;;;;;;14.57;9.13;;;18.70;76.80;19.20;97144.00;;;;5070581;28;20203;-83
2022/10/12 10:09:30;;;;;;;13.83;9.20;;;18.70;76.70;19.20;97145.00;;;;5059039;28;20319;-83
2022/10/12 10:11:57;;;;;;;11.13;8.83;;;18.70;76.30;19.20;97148.00;;;;5065922;28;20216;-83
2022/10/12 10:14:25;;;;;;;8.80;7.83;;;18.70;76.40;19.20;97153.00;;;;5062558;28;20653;-83
2022/10/12 10:16:54;;;;;;;11.20;8.93;;;18.70;76.40;19.20;97154.00;;;;5067622;28;20201;-83
2022/10/12 10:19:25;;;;;;;13.87;9.13;;;18.70;76.40;19.20;97148.00;;;;5059981;28;20204;-83
2022/10/12 10:21:54;;;;;;;13.53;8.60;;;18.70;76.40;19.20;97151.00;;;;5063337;28;20611;-83
2022/10/12 10:24:28;;;;;;;15.70;9.90;;;18.70;76.40;19.20;97155.00;;;;5067387;28;20573;-84
2022/10/12 10:26:59;;;;;;;12.07;8.80;;;18.70;76.30;19.20;97152.00;;;;5058087;28;20220;-83
2022/10/12 10:29:36;;;;;;;11.27;9.07;;;18.70;76.40;19.20;97154.00;;;;5071165;28;20310;-83
2022/10/12 10:32:25;;;;;;;11.80;8.53;;;18.70;76.50;19.20;97158.00;;;;5074839;28;20273;-83
2022/10/12 10:35:06;;;;;;;11.17;8.63;;;18.70;76.30;19.20;97155.00;;;;5059833;28;20231;-83
2022/10/12 10:37:35;;;;;;;11.87;8.77;;;18.70;77.00;19.20;97153.00;;;;5065108;28;20791;-83
2022/10/12 10:40:03;;;;;;;14.07;8.60;;;18.70;76.20;19.30;97150.00;;;;5070210;28;20236;-83
2022/10/12 10:42:33;;;;;;;13.03;9.40;;;18.70;76.30;19.30;97143.00;;;;5072587;28;20295;-83
2022/10/12 10:45:08;;;;;;;13.80;9.40;;;18.70;76.30;19.30;97146.00;;;;5077645;28;20567;-83
2022/10/12 10:47:45;;;;;;;12.17;9.27;;;18.80;76.40;19.30;97144.00;;;;5070364;28;20200;-83
2022/10/12 10:50:27;;;;;;;12.80;9.97;;;18.80;76.50;19.40;97145.00;;;;5069905;28;20215;-83
2022/10/12 10:53:00;;;;;;;12.80;8.90;;;18.80;76.40;19.40;97146.00;;;;5071099;28;20238;-83
2022/10/12 10:55:44;;;;;;;13.30;9.93;;;18.80;76.40;19.40;97147.00;;;;5074768;28;20529;-83
2022/10/12 10:58:26;;;;;;;14.07;9.77;;;18.90;76.50;19.40;97145.00;;;;5069350;28;20200;-83
2022/10/12 11:01:02;;;;;;;13.00;9.43;;;18.90;76.20;19.40;97146.00;;;;5072813;28;20231;-83
2022/10/12 11:03:39;;;;;;;11.73;8.60;;;18.90;76.30;19.40;97148.00;;;;5072445;28;20211;-83
2022/10/12 11:06:19;;;;;;;10.03;8.10;;;18.90;76.40;19.40;97142.00;;;;5077659;28;20615;-83
2022/10/12 11:08:52;;;;;;;13.77;8.63;;;18.90;76.40;19.40;97137.00;;;;5069469;28;20231;-83